createdAt,value
2018-06-04T00:00:50.804Z,21.44
2018-06-04T00:01:50.730Z,21.44
2018-06-04T00:02:50.736Z,21.37
2018-06-04T00:03:50.741Z,21.44
2018-06-04T00:04:50.785Z,21.44
2018-06-04T00:05:50.895Z,21.31
2018-06-04T00:06:50.756Z,21.25
2018-06-04T00:07:50.735Z,21.25
2018-06-04T00:08:50.784Z,21.19
2018-06-04T00:09:50.743Z,21.06
2018-06-04T00:10:50.727Z,21.12
2018-06-04T00:11:50.718Z,21.12
2018-06-04T00:12:50.708Z,21.12
2018-06-04T00:13:50.748Z,21.06
2018-06-04T00:14:50.698Z,21.06
2018-06-04T00:15:50.762Z,21.06
2018-06-04T00:16:50.763Z,21.06
2018-06-04T00:17:50.708Z,21.06
2018-06-04T00:18:50.686Z,21.06
2018-06-04T00:19:50.710Z,21
2018-06-04T00:20:50.862Z,21
2018-06-04T00:21:50.725Z,20.94
2018-06-04T00:22:50.749Z,20.94
2018-06-04T00:23:50.857Z,20.94
2018-06-04T00:24:50.760Z,20.94
2018-06-04T00:25:50.711Z,21
2018-06-04T00:26:50.772Z,20.94
2018-06-04T00:27:50.773Z,20.94
2018-06-04T00:28:50.744Z,20.94
2018-06-04T00:29:50.728Z,20.88
2018-06-04T00:30:50.816Z,20.88
2018-06-04T00:31:50.713Z,20.88
2018-06-04T00:32:50.735Z,20.88
2018-06-04T00:33:50.711Z,20.88
2018-06-04T00:34:50.712Z,20.88
2018-06-04T00:35:50.696Z,20.75
2018-06-04T00:36:50.723Z,20.75
2018-06-04T00:37:50.710Z,20.75
2018-06-04T00:38:50.698Z,20.75
2018-06-04T00:39:50.725Z,20.75
2018-06-04T00:40:50.696Z,20.69
2018-06-04T00:41:50.748Z,20.75
2018-06-04T00:42:50.704Z,20.75
2018-06-04T00:43:50.679Z,20.75
2018-06-04T00:44:50.748Z,20.81
2018-06-04T00:45:50.691Z,20.75
2018-06-04T00:46:50.689Z,20.56
2018-06-04T00:47:50.734Z,20.56
2018-06-04T00:48:50.747Z,20.5
2018-06-04T00:49:50.739Z,20.56
2018-06-04T00:50:50.697Z,20.56
2018-06-04T00:51:50.699Z,20.56
2018-06-04T00:52:50.692Z,20.56
2018-06-04T00:53:50.757Z,20.56
2018-06-04T00:54:50.750Z,20.56
2018-06-04T00:55:50.710Z,20.56
2018-06-04T00:56:50.757Z,20.62
2018-06-04T00:57:50.699Z,20.62
2018-06-04T00:58:50.753Z,20.56
2018-06-04T00:59:51.066Z,20.56
2018-06-04T01:00:50.870Z,20.62
2018-06-04T01:01:50.713Z,20.56
2018-06-04T01:02:50.733Z,20.62
2018-06-04T01:03:51.177Z,20.62
2018-06-04T01:04:50.741Z,20.62
2018-06-04T01:05:50.729Z,20.62
2018-06-04T01:06:50.869Z,20.56
2018-06-04T01:07:50.889Z,20.5
2018-06-04T01:08:50.865Z,20.5
2018-06-04T01:09:50.706Z,20.5
2018-06-04T01:10:50.672Z,20.5
2018-06-04T01:11:50.809Z,20.5
2018-06-04T01:12:50.746Z,20.5
2018-06-04T01:13:50.747Z,20.5
2018-06-04T01:14:50.723Z,20.5
2018-06-04T01:15:50.745Z,20.5
2018-06-04T01:16:50.831Z,20.44
2018-06-04T01:17:50.749Z,20.37
2018-06-04T01:18:51.015Z,20.37
2018-06-04T01:19:50.716Z,20.37
2018-06-04T01:20:50.997Z,20.37
2018-06-04T01:21:50.676Z,20.44
2018-06-04T01:22:50.729Z,20.44
2018-06-04T01:23:50.722Z,20.44
2018-06-04T01:24:50.713Z,20.44
2018-06-04T01:25:50.700Z,20.44
2018-06-04T01:26:50.710Z,20.44
2018-06-04T01:27:50.729Z,20.44
2018-06-04T01:28:50.696Z,20.44
2018-06-04T01:29:50.682Z,20.44
2018-06-04T01:30:50.707Z,20.44
2018-06-04T01:31:50.685Z,20.44
2018-06-04T01:32:50.912Z,20.5
2018-06-04T01:33:50.688Z,20.44
2018-06-04T01:34:50.687Z,20.44
2018-06-04T01:35:50.772Z,20.44
2018-06-04T01:36:50.766Z,20.44
2018-06-04T01:37:50.681Z,20.5
2018-06-04T01:38:50.721Z,20.44
2018-06-04T01:39:50.748Z,20.44
2018-06-04T01:40:50.678Z,20.44
2018-06-04T01:41:50.692Z,20.44
2018-06-04T01:42:50.698Z,20.44
2018-06-04T01:43:50.716Z,20.44
2018-06-04T01:44:51.402Z,20.44
2018-06-04T01:45:50.797Z,20.44
2018-06-04T01:46:50.721Z,20.44
2018-06-04T01:47:50.671Z,20.37
2018-06-04T01:48:50.700Z,20.37
2018-06-04T01:49:50.708Z,20.37
2018-06-04T01:50:50.725Z,20.31
2018-06-04T01:51:50.733Z,20.37
2018-06-04T01:52:50.695Z,20.31
2018-06-04T01:53:50.717Z,20.37
2018-06-04T01:54:50.676Z,20.31
2018-06-04T01:55:50.684Z,20.31
2018-06-04T01:56:50.801Z,20.25
2018-06-04T01:57:50.679Z,20.25
2018-06-04T01:58:50.748Z,20.25
2018-06-04T01:59:50.673Z,20.25
2018-06-04T02:00:50.720Z,20.25
2018-06-04T02:01:50.697Z,20.19
2018-06-04T02:02:50.695Z,20.19
2018-06-04T02:03:50.827Z,20.19
2018-06-04T02:04:50.706Z,20.19
2018-06-04T02:05:50.704Z,20.12
2018-06-04T02:06:50.698Z,20.06
2018-06-04T02:07:50.697Z,20.12
2018-06-04T02:08:50.679Z,20.12
2018-06-04T02:09:50.708Z,20.12
2018-06-04T02:10:50.683Z,20.06
2018-06-04T02:11:50.700Z,20
2018-06-04T02:12:50.718Z,20
2018-06-04T02:13:50.705Z,20
2018-06-04T02:14:50.718Z,19.94
2018-06-04T02:15:50.899Z,19.94
2018-06-04T02:16:50.686Z,19.87
2018-06-04T02:17:50.675Z,19.81
2018-06-04T02:18:50.703Z,19.81
2018-06-04T02:19:50.720Z,19.81
2018-06-04T02:20:50.725Z,19.81
2018-06-04T02:21:50.998Z,19.81
2018-06-04T02:22:50.736Z,19.81
2018-06-04T02:23:50.670Z,19.81
2018-06-04T02:24:50.664Z,19.75
2018-06-04T02:25:50.663Z,19.75
2018-06-04T02:26:50.676Z,19.75
2018-06-04T02:27:50.667Z,19.69
2018-06-04T02:28:50.910Z,19.69
2018-06-04T02:29:50.669Z,19.62
2018-06-04T02:30:50.717Z,19.62
2018-06-04T02:31:50.677Z,19.69
2018-06-04T02:32:50.692Z,19.69
2018-06-04T02:33:50.709Z,19.69
2018-06-04T02:34:50.714Z,19.69
2018-06-04T02:35:50.712Z,19.62
2018-06-04T02:36:50.665Z,19.69
2018-06-04T02:37:50.741Z,19.62
2018-06-04T02:38:50.676Z,19.62
2018-06-04T02:39:50.800Z,19.62
2018-06-04T02:40:50.676Z,19.62
2018-06-04T02:41:50.759Z,19.62
2018-06-04T02:42:50.781Z,19.62
2018-06-04T02:43:50.697Z,19.56
2018-06-04T02:44:50.859Z,19.62
2018-06-04T02:45:50.704Z,19.56
2018-06-04T02:46:50.740Z,19.56
2018-06-04T02:47:50.676Z,19.62
2018-06-04T02:48:50.680Z,19.56
2018-06-04T02:49:51.344Z,19.56
2018-06-04T02:50:50.758Z,19.56
2018-06-04T02:51:50.665Z,19.56
2018-06-04T02:52:50.660Z,19.62
2018-06-04T02:53:50.678Z,19.56
2018-06-04T02:54:50.679Z,19.56
2018-06-04T02:55:50.729Z,19.56
2018-06-04T02:56:50.725Z,19.56
2018-06-04T02:57:50.701Z,19.56
2018-06-04T02:58:50.723Z,19.5
2018-06-04T02:59:50.703Z,19.5
2018-06-04T03:00:50.691Z,19.5
2018-06-04T03:01:50.707Z,19.5
2018-06-04T03:02:50.701Z,19.5
2018-06-04T03:03:50.656Z,19.5
2018-06-04T03:04:50.649Z,19.5
2018-06-04T03:05:50.648Z,19.5
2018-06-04T03:06:50.720Z,19.5
2018-06-04T03:07:50.664Z,19.5
2018-06-04T03:08:50.686Z,19.5
2018-06-04T03:09:50.676Z,19.5
2018-06-04T03:10:50.688Z,19.5
2018-06-04T03:11:50.678Z,19.5
2018-06-04T03:12:50.671Z,19.44
2018-06-04T03:13:50.679Z,19.44
2018-06-04T03:14:50.675Z,19.44
2018-06-04T03:15:51.295Z,19.44
2018-06-04T03:16:50.698Z,19.44
2018-06-04T03:17:50.703Z,19.44
2018-06-04T03:18:50.943Z,19.37
2018-06-04T03:19:51.002Z,19.37
2018-06-04T03:20:50.664Z,19.37
2018-06-04T03:21:50.637Z,19.37
2018-06-04T03:22:50.721Z,19.31
2018-06-04T03:23:50.634Z,19.31
2018-06-04T03:24:50.667Z,19.31
2018-06-04T03:25:50.684Z,19.25
2018-06-04T03:26:50.672Z,19.25
2018-06-04T03:27:50.707Z,19.25
2018-06-04T03:28:50.677Z,19.25
2018-06-04T03:29:50.643Z,19.25
2018-06-04T03:30:50.654Z,19.25
2018-06-04T03:31:50.688Z,19.25
2018-06-04T03:32:50.664Z,19.25
2018-06-04T03:33:50.986Z,19.19
2018-06-04T03:34:50.933Z,19.25
2018-06-04T03:35:50.677Z,19.19
2018-06-04T03:36:50.829Z,19.19
2018-06-04T03:37:50.651Z,19.19
2018-06-04T03:38:50.837Z,19.19
2018-06-04T03:39:50.678Z,19.19
2018-06-04T03:40:50.842Z,19.19
2018-06-04T03:41:50.715Z,19.12
2018-06-04T03:42:50.660Z,19.12
2018-06-04T03:43:50.674Z,19.12
2018-06-04T03:44:50.652Z,19.12
2018-06-04T03:45:50.740Z,19.12
2018-06-04T03:46:50.683Z,19.06
2018-06-04T03:47:50.621Z,19.06
2018-06-04T03:48:50.750Z,19.06
2018-06-04T03:49:50.647Z,19.06
2018-06-04T03:50:50.709Z,19.06
2018-06-04T03:51:50.681Z,19.06
2018-06-04T03:52:50.680Z,19.06
2018-06-04T03:53:50.642Z,19.06
2018-06-04T03:54:50.918Z,19
2018-06-04T03:55:50.650Z,19.06
2018-06-04T03:56:50.677Z,19.06
2018-06-04T03:57:50.642Z,19.06
2018-06-04T03:58:50.658Z,19.06
2018-06-04T03:59:50.852Z,19.06
2018-06-04T04:00:50.663Z,19.12
2018-06-04T04:01:51.147Z,19.06
2018-06-04T04:02:50.934Z,19.12
2018-06-04T04:03:50.640Z,19.12
2018-06-04T04:04:50.666Z,19.06
2018-06-04T04:05:50.634Z,19.12
2018-06-04T04:06:50.635Z,19.12
2018-06-04T04:07:50.658Z,19.12
2018-06-04T04:08:50.684Z,19.12
2018-06-04T04:09:50.669Z,19.19
2018-06-04T04:10:50.653Z,19.12
2018-06-04T04:11:50.659Z,19.12
2018-06-04T04:12:50.657Z,19.12
2018-06-04T04:13:50.668Z,19.12
2018-06-04T04:14:50.670Z,19.12
2018-06-04T04:15:50.708Z,19.12
2018-06-04T04:16:50.644Z,19.12
2018-06-04T04:17:50.664Z,19.12
2018-06-04T04:18:50.687Z,19.12
2018-06-04T04:19:50.637Z,19.12
2018-06-04T04:20:50.644Z,19.12
2018-06-04T04:21:50.646Z,19.19
2018-06-04T04:22:50.635Z,19.19
2018-06-04T04:23:50.668Z,19.12
2018-06-04T04:24:51.011Z,19.12
2018-06-04T04:25:50.636Z,19.12
2018-06-04T04:26:50.839Z,19.12
2018-06-04T04:27:51.722Z,19.12
2018-06-04T04:28:50.797Z,19.12
2018-06-04T04:29:50.681Z,19.19
2018-06-04T04:30:50.609Z,19.19
2018-06-04T04:31:50.644Z,19.19
2018-06-04T04:32:50.698Z,19.19
2018-06-04T04:33:50.653Z,19.19
2018-06-04T04:34:50.632Z,19.19
2018-06-04T04:35:50.670Z,19.19
2018-06-04T04:36:50.634Z,19.19
2018-06-04T04:37:51.275Z,19.25
2018-06-04T04:38:50.683Z,19.25
2018-06-04T04:39:50.666Z,19.25
2018-06-04T04:40:50.738Z,19.25
2018-06-04T04:41:50.624Z,19.31
2018-06-04T04:42:50.656Z,19.37
2018-06-04T04:43:50.629Z,19.37
2018-06-04T04:44:50.614Z,19.37
2018-06-04T04:45:50.681Z,19.37
2018-06-04T04:46:50.658Z,19.37
2018-06-04T04:47:50.872Z,19.37
2018-06-04T04:48:50.612Z,19.37
2018-06-04T04:49:50.604Z,19.31
2018-06-04T04:50:50.599Z,19.37
2018-06-04T04:51:50.635Z,19.44
2018-06-04T04:52:50.646Z,19.44
2018-06-04T04:53:50.626Z,19.44
2018-06-04T04:54:50.636Z,19.5
2018-06-04T04:55:50.675Z,19.5
2018-06-04T04:56:50.646Z,19.5
2018-06-04T04:57:50.676Z,19.44
2018-06-04T04:58:50.628Z,19.5
2018-06-04T04:59:50.798Z,19.5
2018-06-04T05:00:50.602Z,19.44
2018-06-04T05:01:50.971Z,19.44
2018-06-04T05:02:50.654Z,19.5
2018-06-04T05:03:50.628Z,19.5
2018-06-04T05:04:50.625Z,19.44
2018-06-04T05:05:50.618Z,19.5
2018-06-04T05:06:50.802Z,19.44
2018-06-04T05:07:50.614Z,19.44
2018-06-04T05:08:50.638Z,19.44
2018-06-04T05:09:50.724Z,19.44
2018-06-04T05:10:51.542Z,19.44
2018-06-04T05:11:50.638Z,19.44
2018-06-04T05:12:50.648Z,19.44
2018-06-04T05:13:50.624Z,19.5
2018-06-04T05:14:50.613Z,19.44
2018-06-04T05:15:50.699Z,19.5
2018-06-04T05:16:50.608Z,19.5
2018-06-04T05:17:50.836Z,19.5
2018-06-04T05:18:51.044Z,19.5
2018-06-04T05:19:50.607Z,19.5
2018-06-04T05:20:50.598Z,19.5
2018-06-04T05:21:50.604Z,19.5
2018-06-04T05:22:50.609Z,19.5
2018-06-04T05:23:50.876Z,19.44
2018-06-04T05:24:50.629Z,19.37
2018-06-04T05:25:50.606Z,19.44
2018-06-04T05:26:50.655Z,19.37
2018-06-04T05:27:50.600Z,19.37
2018-06-04T05:28:50.624Z,19.44
2018-06-04T05:29:50.603Z,19.44
2018-06-04T05:30:50.598Z,19.5
2018-06-04T05:31:51.287Z,19.5
2018-06-04T05:32:50.619Z,19.44
2018-06-04T05:33:50.887Z,19.5
2018-06-04T05:34:51.711Z,19.5
2018-06-04T05:35:50.781Z,19.56
2018-06-04T05:36:50.637Z,19.62
2018-06-04T05:37:50.693Z,19.62
2018-06-04T05:38:50.722Z,19.56
2018-06-04T05:39:50.667Z,19.56
2018-06-04T05:40:50.647Z,19.56
2018-06-04T05:41:50.683Z,19.62
2018-06-04T05:42:50.759Z,19.56
2018-06-04T05:43:50.700Z,19.62
2018-06-04T05:44:50.618Z,19.56
2018-06-04T05:45:50.598Z,19.62
2018-06-04T05:46:50.684Z,19.62
2018-06-04T05:47:50.612Z,19.62
2018-06-04T05:48:50.889Z,19.56
2018-06-04T05:49:50.611Z,19.62
2018-06-04T05:50:50.611Z,19.62
2018-06-04T05:51:50.633Z,19.69
2018-06-04T05:52:50.629Z,19.69
2018-06-04T05:53:50.635Z,19.62
2018-06-04T05:54:50.751Z,19.62
2018-06-04T05:55:50.577Z,19.62
2018-06-04T05:56:50.600Z,19.62
2018-06-04T05:57:50.652Z,19.69
2018-06-04T05:58:50.636Z,19.75
2018-06-04T05:59:50.617Z,19.81
2018-06-04T06:00:50.833Z,19.81
2018-06-04T06:01:51.215Z,19.81
2018-06-04T06:02:50.620Z,19.75
2018-06-04T06:03:50.758Z,19.75
2018-06-04T06:04:50.654Z,19.75
2018-06-04T06:05:50.615Z,19.81
2018-06-04T06:06:50.633Z,19.75
2018-06-04T06:07:50.655Z,19.81
2018-06-04T06:08:50.650Z,19.81
2018-06-04T06:09:50.673Z,19.81
2018-06-04T06:10:50.651Z,19.87
2018-06-04T06:11:50.695Z,19.87
2018-06-04T06:12:50.606Z,19.87
2018-06-04T06:13:50.583Z,19.94
2018-06-04T06:14:50.637Z,19.94
2018-06-04T06:15:50.833Z,19.94
2018-06-04T06:16:50.583Z,19.94
2018-06-04T06:17:50.726Z,19.94
2018-06-04T06:18:50.620Z,20
2018-06-04T06:19:51.044Z,20
2018-06-04T06:20:50.600Z,20.06
2018-06-04T06:21:50.612Z,20.06
2018-06-04T06:22:50.613Z,20.12
2018-06-04T06:23:50.576Z,20.19
2018-06-04T06:24:50.625Z,20.19
2018-06-04T06:25:50.590Z,20.19
2018-06-04T06:26:50.602Z,20.25
2018-06-04T06:27:50.591Z,20.25
2018-06-04T06:28:50.622Z,20.31
2018-06-04T06:29:50.635Z,20.31
2018-06-04T06:30:51.132Z,20.31
2018-06-04T06:31:50.606Z,20.37
2018-06-04T06:32:50.624Z,20.37
2018-06-04T06:33:50.895Z,20.37
2018-06-04T06:34:50.624Z,20.44
2018-06-04T06:35:50.643Z,20.44
2018-06-04T06:36:50.618Z,20.5
2018-06-04T06:37:50.678Z,20.5
2018-06-04T06:38:50.651Z,20.44
2018-06-04T06:39:50.564Z,20.5
2018-06-04T06:40:50.657Z,20.5
2018-06-04T06:41:50.622Z,20.5
2018-06-04T06:42:50.601Z,20.56
2018-06-04T06:43:50.596Z,20.5
2018-06-04T06:44:50.690Z,20.56
2018-06-04T06:45:51.214Z,20.56
2018-06-04T06:46:50.638Z,20.56
2018-06-04T06:47:50.564Z,20.62
2018-06-04T06:48:50.573Z,20.62
2018-06-04T06:49:50.628Z,20.69
2018-06-04T06:50:50.613Z,20.69
2018-06-04T06:51:50.635Z,20.75
2018-06-04T06:52:50.617Z,20.81
2018-06-04T06:53:50.665Z,20.88
2018-06-04T06:54:50.628Z,20.88
2018-06-04T06:55:50.596Z,20.94
2018-06-04T06:56:50.696Z,21
2018-06-04T06:57:50.563Z,21
2018-06-04T06:58:50.666Z,21
2018-06-04T06:59:50.706Z,21.06
2018-06-04T07:00:50.597Z,21.12
2018-06-04T07:01:50.869Z,21.19
2018-06-04T07:02:50.660Z,21.12
2018-06-04T07:03:50.582Z,21.19
2018-06-04T07:04:50.596Z,21.19
2018-06-04T07:05:50.671Z,21.19
2018-06-04T07:06:50.662Z,21.12
2018-06-04T07:07:50.553Z,21.12
2018-06-04T07:08:50.581Z,21.19
2018-06-04T07:09:50.662Z,21.25
2018-06-04T07:10:50.747Z,21.19
2018-06-04T07:11:50.616Z,21.31
2018-06-04T07:12:50.545Z,21.31
2018-06-04T07:13:50.578Z,21.37
2018-06-04T07:14:50.625Z,21.44
2018-06-04T07:15:50.638Z,21.44
2018-06-04T07:16:50.651Z,21.44
2018-06-04T07:17:50.581Z,21.44
2018-06-04T07:18:50.621Z,21.44
2018-06-04T07:19:50.561Z,21.44
2018-06-04T07:20:50.604Z,21.5
2018-06-04T07:21:50.637Z,21.5
2018-06-04T07:22:50.616Z,21.56
2018-06-04T07:23:50.563Z,21.62
2018-06-04T07:24:50.585Z,21.69
2018-06-04T07:25:50.677Z,21.75
2018-06-04T07:26:51.339Z,21.75
2018-06-04T07:27:50.690Z,21.81
2018-06-04T07:28:50.623Z,21.81
2018-06-04T07:29:50.605Z,21.87
2018-06-04T07:30:50.597Z,21.94
2018-06-04T07:31:50.577Z,21.94
2018-06-04T07:32:50.638Z,21.94
2018-06-04T07:33:50.575Z,22
2018-06-04T07:34:51.054Z,22
2018-06-04T07:35:50.534Z,22.06
2018-06-04T07:36:50.635Z,22.06
2018-06-04T07:37:50.568Z,22.06
2018-06-04T07:38:50.561Z,22.13
2018-06-04T07:39:50.552Z,22.19
2018-06-04T07:40:50.568Z,22.19
2018-06-04T07:41:50.598Z,22.19
2018-06-04T07:42:50.615Z,22.19
2018-06-04T07:43:56.390Z,22.19
2018-06-04T07:44:50.583Z,22.25
2018-06-04T07:45:50.557Z,22.25
2018-06-04T07:46:50.531Z,22.31
2018-06-04T07:47:50.624Z,22.31
2018-06-04T07:48:50.547Z,22.37
2018-06-04T07:49:50.744Z,22.37
2018-06-04T07:50:50.571Z,22.37
2018-06-04T07:51:50.536Z,22.37
2018-06-04T07:52:50.559Z,22.37
2018-06-04T07:53:50.537Z,22.44
2018-06-04T07:54:50.547Z,22.44
2018-06-04T07:55:50.550Z,22.44
2018-06-04T07:56:50.575Z,22.44
2018-06-04T07:57:50.602Z,22.44
2018-06-04T07:58:50.633Z,22.5
2018-06-04T07:59:50.537Z,22.5
2018-06-04T08:00:51.311Z,22.56
2018-06-04T08:01:50.590Z,22.62
2018-06-04T08:02:50.613Z,22.69
2018-06-04T08:03:50.545Z,22.69
2018-06-04T08:04:50.543Z,22.75
2018-06-04T08:05:50.557Z,22.75
2018-06-04T08:06:50.570Z,22.81
2018-06-04T08:07:50.546Z,22.81
2018-06-04T08:08:50.571Z,22.81
2018-06-04T08:09:50.574Z,22.81
2018-06-04T08:10:50.571Z,22.81
2018-06-04T08:11:50.620Z,22.81
2018-06-04T08:12:50.534Z,22.94
2018-06-04T08:13:50.581Z,22.94
2018-06-04T08:14:50.712Z,23
2018-06-04T08:15:50.719Z,23
2018-06-04T08:16:50.576Z,23.06
2018-06-04T08:17:50.576Z,23.12
2018-06-04T08:18:50.575Z,23.12
2018-06-04T08:19:50.548Z,23.19
2018-06-04T08:20:50.545Z,23.19
2018-06-04T08:21:50.545Z,23.25
2018-06-04T08:22:50.549Z,23.25
2018-06-04T08:23:50.764Z,23.25
2018-06-04T08:24:50.541Z,23.25
2018-06-04T08:25:50.575Z,23.31
2018-06-04T08:26:50.599Z,23.38
2018-06-04T08:27:50.534Z,23.38
2018-06-04T08:28:50.530Z,23.5
2018-06-04T08:29:50.521Z,23.56
2018-06-04T08:30:50.598Z,23.5
2018-06-04T08:31:50.597Z,23.5
2018-06-04T08:32:50.540Z,23.5
2018-06-04T08:33:50.522Z,23.5
2018-06-04T08:34:50.558Z,23.56
2018-06-04T08:35:50.529Z,23.69
2018-06-04T08:36:50.581Z,23.69
2018-06-04T08:37:50.543Z,23.69
2018-06-04T08:38:50.537Z,23.69
2018-06-04T08:39:50.537Z,23.69
2018-06-04T08:40:50.597Z,23.75
2018-06-04T08:41:50.725Z,23.75
2018-06-04T08:42:50.566Z,23.81
2018-06-04T08:43:50.518Z,23.81
2018-06-04T08:44:50.541Z,23.81
2018-06-04T08:45:50.888Z,23.87
2018-06-04T08:46:50.827Z,23.94
2018-06-04T08:47:50.677Z,23.94
2018-06-04T08:48:50.556Z,24.06
2018-06-04T08:49:50.554Z,24.12
2018-06-04T08:50:50.595Z,24.12
2018-06-04T08:51:50.560Z,24.12
2018-06-04T08:52:50.541Z,24.12
2018-06-04T08:53:50.536Z,24.25
2018-06-04T08:54:50.588Z,24.31
2018-06-04T08:55:50.550Z,24.25
2018-06-04T08:56:50.544Z,24.25
2018-06-04T08:57:50.539Z,24.25
2018-06-04T08:58:50.552Z,24.25
2018-06-04T08:59:50.528Z,24.25
2018-06-04T09:00:50.641Z,24.25
2018-06-04T09:01:50.537Z,24.19
2018-06-04T09:02:50.599Z,24.25
2018-06-04T09:03:50.654Z,24.25
2018-06-04T09:04:50.550Z,24.37
2018-06-04T09:05:50.600Z,24.37
2018-06-04T09:06:50.533Z,24.31
2018-06-04T09:07:50.727Z,24.31
2018-06-04T09:08:50.550Z,24.37
2018-06-04T09:09:50.964Z,24.44
2018-06-04T09:10:50.552Z,24.5
2018-06-04T09:11:50.531Z,24.56
2018-06-04T09:12:50.549Z,24.63
2018-06-04T09:13:50.605Z,24.75
2018-06-04T09:14:50.548Z,24.75
2018-06-04T09:15:50.621Z,24.75
2018-06-04T09:16:50.705Z,24.81
2018-06-04T09:17:50.542Z,24.94
2018-06-04T09:18:50.533Z,24.94
2018-06-04T09:19:50.521Z,24.94
2018-06-04T09:20:50.504Z,24.94
2018-06-04T09:21:50.545Z,25
2018-06-04T09:22:50.560Z,25
2018-06-04T09:23:50.552Z,25
2018-06-04T09:24:50.546Z,25
2018-06-04T09:25:50.542Z,25
2018-06-04T09:26:50.548Z,25
2018-06-04T09:27:50.518Z,25
2018-06-04T09:28:50.587Z,25
2018-06-04T09:29:50.514Z,25
2018-06-04T09:30:50.549Z,25.06
2018-06-04T09:31:50.524Z,25.12
2018-06-04T09:32:50.603Z,25.12
2018-06-04T09:33:50.629Z,25.12
2018-06-04T09:34:50.560Z,25.12
2018-06-04T09:35:50.519Z,25.19
2018-06-04T09:36:50.505Z,25.31
2018-06-04T09:37:50.548Z,25.31
2018-06-04T09:38:50.584Z,25.37
2018-06-04T09:39:50.536Z,25.44
2018-06-04T09:40:50.704Z,25.44
2018-06-04T09:41:50.535Z,25.44
2018-06-04T09:42:50.601Z,25.5
2018-06-04T09:43:50.513Z,25.5
2018-06-04T09:44:50.537Z,25.5
2018-06-04T09:45:50.567Z,25.56
2018-06-04T09:46:50.627Z,25.56
2018-06-04T09:47:50.508Z,25.56
2018-06-04T09:48:50.515Z,25.62
2018-06-04T09:49:50.666Z,25.62
2018-06-04T09:50:50.529Z,25.62
2018-06-04T09:51:50.522Z,25.62
2018-06-04T09:52:50.745Z,25.62
2018-06-04T09:53:51.081Z,25.62
2018-06-04T09:54:50.526Z,25.56
2018-06-04T09:55:50.541Z,25.56
2018-06-04T09:56:50.512Z,25.62
2018-06-04T09:57:50.699Z,25.75
2018-06-04T09:58:50.564Z,25.81
2018-06-04T09:59:50.570Z,25.94
2018-06-04T10:00:50.667Z,26.06
2018-06-04T10:01:50.528Z,26
2018-06-04T10:02:50.537Z,26.06
2018-06-04T10:03:50.730Z,26.06
2018-06-04T10:04:50.508Z,26.06
2018-06-04T10:05:50.528Z,26.06
2018-06-04T10:06:50.540Z,26
2018-06-04T10:07:50.556Z,26
2018-06-04T10:08:50.519Z,25.94
2018-06-04T10:09:50.566Z,25.94
2018-06-04T10:10:50.524Z,25.94
2018-06-04T10:11:50.520Z,26
2018-06-04T10:12:50.523Z,25.94
2018-06-04T10:13:50.513Z,26
2018-06-04T10:14:50.515Z,26.06
2018-06-04T10:15:50.530Z,26
2018-06-04T10:16:50.519Z,26.12
2018-06-04T10:17:50.537Z,26.19
2018-06-04T10:18:50.535Z,26.19
2018-06-04T10:19:50.584Z,26.25
2018-06-04T10:20:50.533Z,26.37
2018-06-04T10:21:50.554Z,26.37
2018-06-04T10:22:50.544Z,26.31
2018-06-04T10:23:50.565Z,26.31
2018-06-04T10:24:50.554Z,26.25
2018-06-04T10:25:50.546Z,26.44
2018-06-04T10:26:50.497Z,26.44
2018-06-04T10:27:50.917Z,26.44
2018-06-04T10:28:50.525Z,26.5
2018-06-04T10:29:50.766Z,26.56
2018-06-04T10:30:50.696Z,26.56
2018-06-04T10:31:50.519Z,26.62
2018-06-04T10:32:50.545Z,26.69
2018-06-04T10:33:50.568Z,26.69
2018-06-04T10:34:50.600Z,26.69
2018-06-04T10:35:50.573Z,26.75
2018-06-04T10:36:50.550Z,26.75
2018-06-04T10:37:50.605Z,26.81
2018-06-04T10:38:50.510Z,26.87
2018-06-04T10:39:50.511Z,26.94
2018-06-04T10:40:50.660Z,26.94
2018-06-04T10:41:50.519Z,26.94
2018-06-04T10:42:50.561Z,26.87
2018-06-04T10:43:50.513Z,26.94
2018-06-04T10:44:50.525Z,26.94
2018-06-04T10:45:50.515Z,26.94
2018-06-04T10:46:50.923Z,27
2018-06-04T10:47:50.548Z,27.06
2018-06-04T10:48:50.520Z,27.06
2018-06-04T10:49:50.528Z,27.13
2018-06-04T10:50:50.549Z,27.13
2018-06-04T10:51:50.533Z,27.19
2018-06-04T10:52:50.625Z,27.13
2018-06-04T10:53:50.638Z,27.13
2018-06-04T10:54:50.507Z,27.19
2018-06-04T10:55:50.661Z,27.25
2018-06-04T10:56:50.521Z,27.31
2018-06-04T10:57:50.492Z,27.31
2018-06-04T10:58:50.505Z,27.31
2018-06-04T10:59:50.480Z,27.31
2018-06-04T11:00:50.546Z,27.44
2018-06-04T11:01:50.514Z,27.62
2018-06-04T11:02:50.559Z,27.75
2018-06-04T11:03:50.509Z,27.81
2018-06-04T11:04:50.899Z,27.81
2018-06-04T11:05:50.580Z,27.75
2018-06-04T11:06:50.501Z,27.75
2018-06-04T11:07:50.557Z,27.81
2018-06-04T11:08:50.512Z,27.81
2018-06-04T11:09:50.601Z,27.87
2018-06-04T11:10:50.597Z,28.06
2018-06-04T11:11:50.483Z,28
2018-06-04T11:12:50.717Z,28
2018-06-04T11:13:50.518Z,28.12
2018-06-04T11:14:50.485Z,28.12
2018-06-04T11:15:51.180Z,28.06
2018-06-04T11:16:50.524Z,28.12
2018-06-04T11:17:50.489Z,28.19
2018-06-04T11:18:51.015Z,28.19
2018-06-04T11:19:50.489Z,28.25
2018-06-04T11:20:50.507Z,28.25
2018-06-04T11:21:50.477Z,28.25
2018-06-04T11:22:50.523Z,28.38
2018-06-04T11:23:50.508Z,28.38
2018-06-04T11:24:50.538Z,28.38
2018-06-04T11:25:50.802Z,28.44
2018-06-04T11:26:50.522Z,28.38
2018-06-04T11:27:50.517Z,28.44
2018-06-04T11:28:50.497Z,28.5
2018-06-04T11:29:50.517Z,28.5
2018-06-04T11:30:50.546Z,28.5
2018-06-04T11:31:50.513Z,28.56
2018-06-04T11:32:50.503Z,28.62
2018-06-04T11:33:50.511Z,28.69
2018-06-04T11:34:50.538Z,28.69
2018-06-04T11:35:50.499Z,28.75
2018-06-04T11:36:50.650Z,28.75
2018-06-04T11:37:50.638Z,28.75
2018-06-04T11:38:50.512Z,28.81
2018-06-04T11:39:50.631Z,28.87
2018-06-04T11:40:50.472Z,28.94
2018-06-04T11:41:50.511Z,28.87
2018-06-04T11:42:50.501Z,28.87
2018-06-04T11:43:50.973Z,28.94
2018-06-04T11:44:50.609Z,28.94
2018-06-04T11:45:50.593Z,28.94
2018-06-04T11:46:50.555Z,29
2018-06-04T11:47:50.493Z,29
2018-06-04T11:48:50.697Z,29.12
2018-06-04T11:49:50.625Z,29.25
2018-06-04T11:50:50.582Z,29.31
2018-06-04T11:51:50.560Z,29.25
2018-06-04T11:52:50.492Z,29.25
2018-06-04T11:53:50.508Z,29.25
2018-06-04T11:54:50.573Z,29.25
2018-06-04T11:55:50.594Z,29.25
2018-06-04T11:56:50.544Z,29.31
2018-06-04T11:57:50.539Z,29.25
2018-06-04T11:58:50.580Z,29.19
2018-06-04T11:59:50.529Z,29.25
2018-06-04T12:00:50.589Z,29.31
2018-06-04T12:01:50.501Z,29.37
2018-06-04T12:02:50.463Z,29.25
2018-06-04T12:03:50.590Z,29.31
2018-06-04T12:04:50.473Z,29.37
2018-06-04T12:05:50.782Z,29.37
2018-06-04T12:06:50.532Z,29.44
2018-06-04T12:07:50.648Z,29.37
2018-06-04T12:08:50.512Z,29.31
2018-06-04T12:09:50.485Z,29.37
2018-06-04T12:10:50.667Z,29.44
2018-06-04T12:11:50.847Z,29.5
2018-06-04T12:12:50.620Z,29.5
2018-06-04T12:13:50.519Z,29.56
2018-06-04T12:14:50.492Z,29.63
2018-06-04T12:15:50.493Z,29.69
2018-06-04T12:16:50.541Z,29.63
2018-06-04T12:17:50.610Z,29.63
2018-06-04T12:18:50.604Z,29.69
2018-06-04T12:19:50.537Z,29.75
2018-06-04T12:20:50.605Z,29.81
2018-06-04T12:21:50.491Z,29.87
2018-06-04T12:22:50.491Z,29.94
2018-06-04T12:23:50.609Z,30
2018-06-04T12:24:50.645Z,30
2018-06-04T12:25:50.483Z,30
2018-06-04T12:26:50.470Z,30
2018-06-04T12:27:50.461Z,29.94
2018-06-04T12:28:50.482Z,29.87
2018-06-04T12:29:50.535Z,29.87
2018-06-04T12:30:50.487Z,29.75
2018-06-04T12:31:50.476Z,29.63
2018-06-04T12:32:50.462Z,29.56
2018-06-04T12:33:50.449Z,29.5
2018-06-04T12:34:50.483Z,29.37
2018-06-04T12:35:50.473Z,29.44
2018-06-04T12:36:50.488Z,29.31
2018-06-04T12:37:50.467Z,29.25
2018-06-04T12:38:50.448Z,29.25
2018-06-04T12:39:50.454Z,29.31
2018-06-04T12:40:50.491Z,29.31
2018-06-04T12:41:50.470Z,29.31
2018-06-04T12:42:50.459Z,29.37
2018-06-04T12:43:50.466Z,29.37
2018-06-04T12:44:50.473Z,29.37
2018-06-04T12:45:50.480Z,29.37
2018-06-04T12:46:50.496Z,29.37
2018-06-04T12:47:50.465Z,29.31
2018-06-04T12:48:50.520Z,29.25
2018-06-04T12:49:50.460Z,29.12
2018-06-04T12:50:50.476Z,29.06
2018-06-04T12:51:50.605Z,29.06
2018-06-04T12:52:50.477Z,29
2018-06-04T12:53:50.486Z,29
2018-06-04T12:54:50.480Z,29
2018-06-04T12:55:50.487Z,29.06
2018-06-04T12:56:50.477Z,29.19
2018-06-04T12:57:50.464Z,29.25
2018-06-04T12:58:50.496Z,29.31
2018-06-04T12:59:50.486Z,29.44